Historyczne dane pomiarowe

Dodano dane terminowe – wersja testowa.

Dane z okresu 1951-2019

Wersja bazy: 1.34 [2019-03-16, lista zmian], aktualizacja planowana na 2019-04-15

Dane meteo z obszaru Polski uzyskane na podstawie danych udostępnionych przez Instytut Meteorologii i Gospodarki Wodnej – Państwowy Instytut Badawczy.

 

Wybierz Datę:    

       

TemperaturaWilgotnośćZachmurzenieWiatrCiśnienieWidzialnośćZjawiska
 Data    tng td wb rh cc ccl cl cm ch dir g1 g2 mslp ppp      
1994-08-09 00:00:00 20.5--- 17.1 18.381wxwxwx1wx--1013.8 999.2 0.0---wx
1994-08-09 01:00:00 20.2--- 17.4 18.484wxwxwx1wx--1013.3 998.7----wx
1994-08-09 02:00:00 19.1--- 18.2 18.594wxwxwx1wx--1013.3 998.7----wx
1994-08-09 03:00:00 18.3--- 18.0 18.198wxwxwx1wx--1013.1 998.4----wxw1
1994-08-09 04:00:00 18.5--- 18.2 18.398wxwxwx2wx--1012.6 998.0----wxw1
1994-08-09 05:00:00 18.3--- 17.8 18.097wxwxwx2wx--1012.5 997.9----wxw1
1994-08-09 06:00:00 18.2--- 17.9 18.098wxwxwxwx2wx--1012.8 998.1 18.8---wxw1
1994-08-09 07:00:00 18.7--- 18.4 18.598wxwxwxwx2wx--1013.2 998.6----wxw1
1994-08-09 08:00:00 18.8--- 18.5 18.698wxwxwxwx1wx--1013.5 998.9----wxw1
1994-08-09 09:00:00 18.8--- 18.5 18.698wxwxwx2wx--1013.7 999.1----wxw1
1994-08-09 10:00:00 20.0--- 18.3 18.990wxwxwxwx2wx--1013.7 999.1----wxw1
1994-08-09 11:00:00 21.3--- 18.3 19.383wxwxwxwx2wx--1013.5 999.0----wx
1994-08-09 12:00:00 22.3--- 17.2 19.073wxwxwxwx2wx--1013.5 999.0 5.4---wxw1
1994-08-09 13:00:00 22.5--- 17.8 19.475wxwxwxwx3wx--1013.4 998.9----wx
1994-08-09 14:00:00 23.8--- 17.1 19.466wxwxwxwx2wx--1012.9 998.5----wx
1994-08-09 15:00:00 24.7--- 16.4 19.360wxwxwx2wx--1012.4 998.1----wxw1
1994-08-09 16:00:00 25.1--- 16.7 19.660wxwxwx1wx--1012.1 997.8----wx
1994-08-09 17:00:00 22.8--- 16.6 18.868wxwxwxwx1wx--1012.3 997.9----wx
1994-08-09 18:00:00 21.8--- 17.0 18.774wxwxwx1wx--1012.1 997.6 0.0---wxw1
1994-08-09 19:00:00 19.6--- 17.1 18.086wxwxwx1wx--1012.3 997.7----wx
1994-08-09 20:00:00 19.6--- 17.0 17.985wxwx1wx--1012.2 997.6----wx
1994-08-09 21:00:00 18.0--- 16.7 17.292wxwx1wx--1012.5 997.8----wx
1994-08-09 22:00:00 17.6--- 16.2 16.791wxwx1wx--1012.2 997.5----wx
1994-08-09 23:00:00 17.6--- 15.7 16.489wxwx2wx--1011.9 997.2----wx

 

Źródłem pochodzenia danych jest Instytut Meteorologii i Gospodarki Wodnej – Państwowy Instytut Badawczy. Dane Instytutu Meteorologii i Gospodarki Wodnej – Państwowego Instytutu Badawczego zostały przetworzone.

Dane źródłowe można odnaleźć na stronie https://dane.imgw.pl